To NAV CANADA Home Page Login to a new session Search on AWWS site Feedback and Comments Disclaimer Vers la page française équivalente Tips FAQ What's new on the site To the Forecasts and Observations / NOTAM section To "File a Flight Plan" website Publications and other links Update of the User's profile FIC Telephone Numbers My Weather Data Folder Route Weather Data Regional Weather Data Local Weather Data To the Forecasts and Observations / NOTAM section
Request Generated 08/31/2015 at 04:39:39 UTC . Weather information available at that time is displayed.

METAR/TAF

WINNIPEG/JAMES ARMSTRONG RICHARDSON INTL/MB    

METAR CYWG 310400Z 18016G23KT 15SM BKN180 25/21 A2959 RMK AC5 SLP018
DENSITY ALT 2400FT=
METAR CYWG 310300Z 17013G18KT 15SM BKN170 25/21 A2958 RMK AC5 SLP017
DENSITY ALT 2500FT=
METAR CYWG 310200Z 17017G23KT 15SM SCT200 26/21 A2958 RMK CI4 SLP015
DENSITY ALT 2600FT=

TAF CYWG 302338Z 3100/3124 16018G28KT P6SM SCT160
BECMG 3108/3110 30010KT
FM311200 30012KT P6SM SCT002 SCT080 PROB30 3112/3115 BKN002
FM311500 30010KT 4SM -SHRA BR BKN040
RMK NXT FCST BY 310600Z=
Your time UTC time
Weather data provided by Environment Canada and NAV CANADA